sensor_id;sensor_type;location;lat;lon;timestamp;temperature;humidity
62072;DHT22;48031;48.542;13.232;2022-09-09T00:01:59;15.10;1.00
62072;DHT22;48031;48.542;13.232;2022-09-09T00:04:31;15.10;1.00
62072;DHT22;48031;48.542;13.232;2022-09-09T00:15:26;14.90;1.00
62072;DHT22;48031;48.542;13.232;2022-09-09T00:18:27;14.90;1.00
62072;DHT22;48031;48.542;13.232;2022-09-09T00:21:06;14.80;1.00
62072;DHT22;48031;48.542;13.232;2022-09-09T00:23:38;14.80;1.00
62072;DHT22;48031;48.542;13.232;2022-09-09T00:31:49;14.80;1.00
62072;DHT22;48031;48.542;13.232;2022-09-09T00:34:21;14.80;1.00
62072;DHT22;48031;48.542;13.232;2022-09-09T00:36:50;14.80;1.00
62072;DHT22;48031;48.542;13.232;2022-09-09T00:39:31;14.80;1.00
62072;DHT22;48031;48.542;13.232;2022-09-09T00:44:34;14.70;1.00
62072;DHT22;48031;48.542;13.232;2022-09-09T00:55:16;14.70;1.00
62072;DHT22;48031;48.542;13.232;2022-09-09T00:57:49;14.70;1.00
62072;DHT22;48031;48.542;13.232;2022-09-09T01:00:27;14.70;1.00
62072;DHT22;48031;48.542;13.232;2022-09-09T01:11:20;14.60;1.00
62072;DHT22;48031;48.542;13.232;2022-09-09T01:13:58;14.60;1.00
62072;DHT22;48031;48.542;13.232;2022-09-09T01:16:30;14.60;1.00
62072;DHT22;48031;48.542;13.232;2022-09-09T01:21:43;14.50;1.00
62072;DHT22;48031;48.542;13.232;2022-09-09T01:27:08;14.50;1.00
62072;DHT22;48031;48.542;13.232;2022-09-09T01:29:36;14.50;1.00
62072;DHT22;48031;48.542;13.232;2022-09-09T01:35:15;14.60;1.00
62072;DHT22;48031;48.542;13.232;2022-09-09T01:37:46;14.50;1.00
62072;DHT22;48031;48.542;13.232;2022-09-09T01:40:13;14.50;1.00
62072;DHT22;48031;48.542;13.232;2022-09-09T01:42:40;14.50;2.60
62072;DHT22;48031;48.542;13.232;2022-09-09T01:45:08;14.40;1.00
62072;DHT22;48031;48.542;13.232;2022-09-09T01:47:36;14.40;2.40
62072;DHT22;48031;48.542;13.232;2022-09-09T01:50:19;14.40;1.00
62072;DHT22;48031;48.542;13.232;2022-09-09T01:52:57;14.40;1.00
62072;DHT22;48031;48.542;13.232;2022-09-09T01:55:30;14.40;1.00
62072;DHT22;48031;48.542;13.232;2022-09-09T02:03:32;14.40;1.00
62072;DHT22;48031;48.542;13.232;2022-09-09T02:09:05;14.40;1.00
62072;DHT22;48031;48.542;13.232;2022-09-09T02:14:21;14.40;1.00
62072;DHT22;48031;48.542;13.232;2022-09-09T02:17:11;14.40;1.00
62072;DHT22;48031;48.542;13.232;2022-09-09T02:20:14;14.40;1.00
62072;DHT22;48031;48.542;13.232;2022-09-09T02:22:50;14.30;1.00
62072;DHT22;48031;48.542;13.232;2022-09-09T02:25:22;14.30;1.00
62072;DHT22;48031;48.542;13.232;2022-09-09T02:27:53;14.30;1.00
62072;DHT22;48031;48.542;13.232;2022-09-09T02:30:21;14.30;1.00
62072;DHT22;48031;48.542;13.232;2022-09-09T02:32:54;14.30;1.00
62072;DHT22;48031;48.542;13.232;2022-09-09T02:35:47;14.30;1.00
62072;DHT22;48031;48.542;13.232;2022-09-09T02:38:20;14.30;1.00
62072;DHT22;48031;48.542;13.232;2022-09-09T02:40:57;14.30;1.00
62072;DHT22;48031;48.542;13.232;2022-09-09T02:48:26;15.70;4.70
62072;DHT22;48031;48.542;13.232;2022-09-09T02:51:02;14.20;3.10
62072;DHT22;48031;48.542;13.232;2022-09-09T02:56:21;14.50;1.00
62072;DHT22;48031;48.542;13.232;2022-09-09T02:58:49;14.60;1.00
62072;DHT22;48031;48.542;13.232;2022-09-09T03:01:18;14.70;1.00
62072;DHT22;48031;48.542;13.232;2022-09-09T03:03:46;14.70;1.00
62072;DHT22;48031;48.542;13.232;2022-09-09T03:06:16;15.00;1.00
62072;DHT22;48031;48.542;13.232;2022-09-09T03:08:48;14.90;1.00
62072;DHT22;48031;48.542;13.232;2022-09-09T03:11:22;15.20;1.00
62072;DHT22;48031;48.542;13.232;2022-09-09T03:13:50;14.90;1.00
62072;DHT22;48031;48.542;13.232;2022-09-09T03:16:19;14.90;3.50
62072;DHT22;48031;48.542;13.232;2022-09-09T03:18:50;14.90;1.00
62072;DHT22;48031;48.542;13.232;2022-09-09T03:21:19;14.90;1.00
62072;DHT22;48031;48.542;13.232;2022-09-09T03:23:48;14.90;1.00
62072;DHT22;48031;48.542;13.232;2022-09-09T03:26:15;14.80;1.00
62072;DHT22;48031;48.542;13.232;2022-09-09T03:28:45;14.80;1.00
62072;DHT22;48031;48.542;13.232;2022-09-09T03:31:16;14.80;1.00
62072;DHT22;48031;48.542;13.232;2022-09-09T03:36:14;14.70;1.00
62072;DHT22;48031;48.542;13.232;2022-09-09T03:38:42;14.80;1.00
62072;DHT22;48031;48.542;13.232;2022-09-09T03:41:10;14.80;1.00
62072;DHT22;48031;48.542;13.232;2022-09-09T03:43:38;14.80;1.00
62072;DHT22;48031;48.542;13.232;2022-09-09T03:46:05;14.80;1.00
62072;DHT22;48031;48.542;13.232;2022-09-09T03:48:33;14.80;1.00
62072;DHT22;48031;48.542;13.232;2022-09-09T03:51:00;14.80;1.00
62072;DHT22;48031;48.542;13.232;2022-09-09T03:53:30;14.90;1.60
62072;DHT22;48031;48.542;13.232;2022-09-09T03:55:58;14.90;3.00
62072;DHT22;48031;48.542;13.232;2022-09-09T03:58:28;14.90;2.50
62072;DHT22;48031;48.542;13.232;2022-09-09T04:01:06;14.90;7.60
62072;DHT22;48031;48.542;13.232;2022-09-09T04:03:37;14.90;1.00
62072;DHT22;48031;48.542;13.232;2022-09-09T04:06:05;14.90;1.00
62072;DHT22;48031;48.542;13.232;2022-09-09T04:08:34;14.90;1.00
62072;DHT22;48031;48.542;13.232;2022-09-09T04:11:03;14.90;1.70
62072;DHT22;48031;48.542;13.232;2022-09-09T04:13:36;14.90;2.30
62072;DHT22;48031;48.542;13.232;2022-09-09T04:16:11;15.00;2.70
62072;DHT22;48031;48.542;13.232;2022-09-09T04:18:42;14.70;1.00
62072;DHT22;48031;48.542;13.232;2022-09-09T04:21:10;15.10;2.30
62072;DHT22;48031;48.542;13.232;2022-09-09T04:23:40;15.20;1.90
62072;DHT22;48031;48.542;13.232;2022-09-09T04:26:08;15.20;1.00
62072;DHT22;48031;48.542;13.232;2022-09-09T04:28:37;15.20;1.00
62072;DHT22;48031;48.542;13.232;2022-09-09T04:31:18;15.20;1.00
62072;DHT22;48031;48.542;13.232;2022-09-09T04:33:49;15.20;1.00
62072;DHT22;48031;48.542;13.232;2022-09-09T04:36:17;15.30;2.70
62072;DHT22;48031;48.542;13.232;2022-09-09T04:38:50;15.20;1.00
62072;DHT22;48031;48.542;13.232;2022-09-09T04:41:17;15.00;5.50
62072;DHT22;48031;48.542;13.232;2022-09-09T04:43:48;15.20;1.00
62072;DHT22;48031;48.542;13.232;2022-09-09T04:46:16;15.20;1.00
62072;DHT22;48031;48.542;13.232;2022-09-09T04:48:46;15.20;1.00
62072;DHT22;48031;48.542;13.232;2022-09-09T04:51:14;15.30;1.00
62072;DHT22;48031;48.542;13.232;2022-09-09T04:53:43;15.30;1.80
62072;DHT22;48031;48.542;13.232;2022-09-09T04:56:16;15.30;5.60
62072;DHT22;48031;48.542;13.232;2022-09-09T04:58:52;15.10;2.00
62072;DHT22;48031;48.542;13.232;2022-09-09T05:03:55;15.20;1.00
62072;DHT22;48031;48.542;13.232;2022-09-09T05:06:23;15.20;4.50
62072;DHT22;48031;48.542;13.232;2022-09-09T05:08:55;15.10;4.50
62072;DHT22;48031;48.542;13.232;2022-09-09T05:11:30;15.10;3.10
62072;DHT22;48031;48.542;13.232;2022-09-09T05:14:14;15.10;1.00
62072;DHT22;48031;48.542;13.232;2022-09-09T05:16:42;15.10;1.00
62072;DHT22;48031;48.542;13.232;2022-09-09T05:19:11;15.10;1.00
62072;DHT22;48031;48.542;13.232;2022-09-09T05:21:47;15.10;1.00
62072;DHT22;48031;48.542;13.232;2022-09-09T05:24:17;15.10;1.00
62072;DHT22;48031;48.542;13.232;2022-09-09T05:26:46;15.10;3.30
62072;DHT22;48031;48.542;13.232;2022-09-09T05:29:13;15.10;5.30
62072;DHT22;48031;48.542;13.232;2022-09-09T05:31:41;15.20;5.80
62072;DHT22;48031;48.542;13.232;2022-09-09T05:34:12;15.20;7.60
62072;DHT22;48031;48.542;13.232;2022-09-09T05:36:39;15.20;8.90
62072;DHT22;48031;48.542;13.232;2022-09-09T05:39:06;15.20;8.90
62072;DHT22;48031;48.542;13.232;2022-09-09T05:41:34;15.20;1.60
62072;DHT22;48031;48.542;13.232;2022-09-09T05:44:03;15.20;1.00
62072;DHT22;48031;48.542;13.232;2022-09-09T05:46:35;15.20;1.00
62072;DHT22;48031;48.542;13.232;2022-09-09T05:49:03;15.30;1.00
62072;DHT22;48031;48.542;13.232;2022-09-09T05:51:31;15.30;1.00
62072;DHT22;48031;48.542;13.232;2022-09-09T05:54:04;15.30;1.00
62072;DHT22;48031;48.542;13.232;2022-09-09T05:56:36;15.30;1.00
62072;DHT22;48031;48.542;13.232;2022-09-09T05:59:03;15.30;1.00
62072;DHT22;48031;48.542;13.232;2022-09-09T06:01:33;15.40;1.00
62072;DHT22;48031;48.542;13.232;2022-09-09T06:04:02;15.40;1.00
62072;DHT22;48031;48.542;13.232;2022-09-09T06:06:35;15.50;1.00
62072;DHT22;48031;48.542;13.232;2022-09-09T06:09:08;15.50;1.00
62072;DHT22;48031;48.542;13.232;2022-09-09T06:11:39;15.60;1.00
62072;DHT22;48031;48.542;13.232;2022-09-09T06:14:07;15.70;1.00
62072;DHT22;48031;48.542;13.232;2022-09-09T06:16:34;15.80;1.00
62072;DHT22;48031;48.542;13.232;2022-09-09T06:19:09;15.80;1.00
62072;DHT22;48031;48.542;13.232;2022-09-09T06:21:39;15.80;1.00
62072;DHT22;48031;48.542;13.232;2022-09-09T06:24:08;15.90;1.00
62072;DHT22;48031;48.542;13.232;2022-09-09T06:26:38;15.90;1.00
62072;DHT22;48031;48.542;13.232;2022-09-09T06:29:09;16.00;1.00
62072;DHT22;48031;48.542;13.232;2022-09-09T06:31:37;16.10;1.00
62072;DHT22;48031;48.542;13.232;2022-09-09T06:34:10;16.20;1.00
62072;DHT22;48031;48.542;13.232;2022-09-09T06:36:40;16.30;1.00
62072;DHT22;48031;48.542;13.232;2022-09-09T06:39:08;16.40;1.00
62072;DHT22;48031;48.542;13.232;2022-09-09T06:41:41;16.40;1.00
62072;DHT22;48031;48.542;13.232;2022-09-09T06:44:29;16.50;1.00
62072;DHT22;48031;48.542;13.232;2022-09-09T06:47:02;16.60;1.00
62072;DHT22;48031;48.542;13.232;2022-09-09T06:49:30;16.70;1.00
62072;DHT22;48031;48.542;13.232;2022-09-09T06:51:58;16.80;1.00
62072;DHT22;48031;48.542;13.232;2022-09-09T06:54:26;16.90;1.00
62072;DHT22;48031;48.542;13.232;2022-09-09T06:56:53;17.00;1.00
62072;DHT22;48031;48.542;13.232;2022-09-09T06:59:22;17.00;1.00
62072;DHT22;48031;48.542;13.232;2022-09-09T07:01:52;17.00;1.00
62072;DHT22;48031;48.542;13.232;2022-09-09T07:04:23;17.10;1.00
62072;DHT22;48031;48.542;13.232;2022-09-09T07:06:50;17.10;1.00
62072;DHT22;48031;48.542;13.232;2022-09-09T07:09:24;17.00;1.00
62072;DHT22;48031;48.542;13.232;2022-09-09T07:11:53;17.00;1.00
62072;DHT22;48031;48.542;13.232;2022-09-09T07:14:22;17.00;1.00
62072;DHT22;48031;48.542;13.232;2022-09-09T07:16:59;17.00;1.00
62072;DHT22;48031;48.542;13.232;2022-09-09T07:19:31;17.10;1.00
62072;DHT22;48031;48.542;13.232;2022-09-09T07:21:58;17.10;1.00
62072;DHT22;48031;48.542;13.232;2022-09-09T07:24:26;17.20;1.00
62072;DHT22;48031;48.542;13.232;2022-09-09T07:26:57;17.30;1.00
62072;DHT22;48031;48.542;13.232;2022-09-09T07:29:26;17.30;1.00
62072;DHT22;48031;48.542;13.232;2022-09-09T07:31:53;17.40;1.00
62072;DHT22;48031;48.542;13.232;2022-09-09T07:34:25;17.50;1.00
62072;DHT22;48031;48.542;13.232;2022-09-09T07:36:52;17.60;1.00
62072;DHT22;48031;48.542;13.232;2022-09-09T07:39:19;17.60;1.00
62072;DHT22;48031;48.542;13.232;2022-09-09T07:41:50;17.70;1.00
62072;DHT22;48031;48.542;13.232;2022-09-09T07:44:23;17.70;1.00
62072;DHT22;48031;48.542;13.232;2022-09-09T07:47:02;17.80;1.00
62072;DHT22;48031;48.542;13.232;2022-09-09T07:49:35;17.80;1.00
62072;DHT22;48031;48.542;13.232;2022-09-09T07:52:04;17.90;1.00
62072;DHT22;48031;48.542;13.232;2022-09-09T07:54:32;18.00;1.00
62072;DHT22;48031;48.542;13.232;2022-09-09T07:57:02;18.00;1.00
62072;DHT22;48031;48.542;13.232;2022-09-09T07:59:33;17.90;1.00
62072;DHT22;48031;48.542;13.232;2022-09-09T08:02:01;17.90;1.00
62072;DHT22;48031;48.542;13.232;2022-09-09T08:04:31;17.80;1.00
62072;DHT22;48031;48.542;13.232;2022-09-09T08:07:01;17.90;1.00
62072;DHT22;48031;48.542;13.232;2022-09-09T08:09:35;17.90;1.00
62072;DHT22;48031;48.542;13.232;2022-09-09T08:12:22;18.00;1.00
62072;DHT22;48031;48.542;13.232;2022-09-09T08:14:50;18.10;1.00
62072;DHT22;48031;48.542;13.232;2022-09-09T08:17:21;18.20;1.00
62072;DHT22;48031;48.542;13.232;2022-09-09T08:19:48;18.30;1.00
62072;DHT22;48031;48.542;13.232;2022-09-09T08:22:20;18.40;1.00
62072;DHT22;48031;48.542;13.232;2022-09-09T08:24:49;18.60;1.00
62072;DHT22;48031;48.542;13.232;2022-09-09T08:27:17;18.80;1.00
62072;DHT22;48031;48.542;13.232;2022-09-09T08:29:44;18.90;1.00
62072;DHT22;48031;48.542;13.232;2022-09-09T08:32:11;19.10;1.00
62072;DHT22;48031;48.542;13.232;2022-09-09T08:34:39;19.30;1.00
62072;DHT22;48031;48.542;13.232;2022-09-09T08:37:16;19.50;1.00
62072;DHT22;48031;48.542;13.232;2022-09-09T08:39:43;19.60;1.00
62072;DHT22;48031;48.542;13.232;2022-09-09T08:42:35;19.70;1.00
62072;DHT22;48031;48.542;13.232;2022-09-09T08:45:15;19.70;1.00
62072;DHT22;48031;48.542;13.232;2022-09-09T08:47:53;19.60;1.00
62072;DHT22;48031;48.542;13.232;2022-09-09T08:55:46;19.40;1.00
62072;DHT22;48031;48.542;13.232;2022-09-09T08:58:21;19.40;1.00
62072;DHT22;48031;48.542;13.232;2022-09-09T09:06:55;19.40;1.00
62072;DHT22;48031;48.542;13.232;2022-09-09T09:12:30;19.40;1.00
62072;DHT22;48031;48.542;13.232;2022-09-09T09:14:59;19.50;1.00
62072;DHT22;48031;48.542;13.232;2022-09-09T09:17:28;19.40;1.00
62072;DHT22;48031;48.542;13.232;2022-09-09T09:19:59;19.50;1.00
62072;DHT22;48031;48.542;13.232;2022-09-09T09:22:44;19.50;1.00
62072;DHT22;48031;48.542;13.232;2022-09-09T09:25:21;19.50;1.00
62072;DHT22;48031;48.542;13.232;2022-09-09T09:30:39;19.40;1.00
62072;DHT22;48031;48.542;13.232;2022-09-09T09:33:17;19.40;1.00
62072;DHT22;48031;48.542;13.232;2022-09-09T09:35:49;19.50;1.00
62072;DHT22;48031;48.542;13.232;2022-09-09T09:38:21;19.50;1.00
62072;DHT22;48031;48.542;13.232;2022-09-09T09:41:09;19.50;1.00
62072;DHT22;48031;48.542;13.232;2022-09-09T09:43:40;19.50;1.00
62072;DHT22;48031;48.542;13.232;2022-09-09T09:46:22;19.50;1.00
62072;DHT22;48031;48.542;13.232;2022-09-09T09:49:09;19.50;1.00
62072;DHT22;48031;48.542;13.232;2022-09-09T09:51:37;19.40;1.00
62072;DHT22;48031;48.542;13.232;2022-09-09T09:56:46;19.30;1.00
62072;DHT22;48031;48.542;13.232;2022-09-09T09:59:36;19.20;1.00
62072;DHT22;48031;48.542;13.232;2022-09-09T10:02:37;19.10;1.00
62072;DHT22;48031;48.542;13.232;2022-09-09T10:05:16;19.20;1.00
62072;DHT22;48031;48.542;13.232;2022-09-09T10:07:47;19.20;1.00
62072;DHT22;48031;48.542;13.232;2022-09-09T10:23:52;18.70;1.00
62072;DHT22;48031;48.542;13.232;2022-09-09T10:29:05;18.60;1.00
62072;DHT22;48031;48.542;13.232;2022-09-09T10:35:08;18.50;1.00
62072;DHT22;48031;48.542;13.232;2022-09-09T10:40:33;18.50;1.00
62072;DHT22;48031;48.542;13.232;2022-09-09T10:57:12;18.90;1.00
62072;DHT22;48031;48.542;13.232;2022-09-09T10:59:45;19.00;1.00
62072;DHT22;48031;48.542;13.232;2022-09-09T11:02:29;19.00;1.00
62072;DHT22;48031;48.542;13.232;2022-09-09T11:05:12;19.00;1.00
62072;DHT22;48031;48.542;13.232;2022-09-09T11:13:26;18.80;1.00
62072;DHT22;48031;48.542;13.232;2022-09-09T11:16:24;18.60;1.00
62072;DHT22;48031;48.542;13.232;2022-09-09T11:18:47;18.60;1.00
62072;DHT22;48031;48.542;13.232;2022-09-09T11:21:34;18.50;1.00
62072;DHT22;48031;48.542;13.232;2022-09-09T11:24:08;18.50;1.00
62072;DHT22;48031;48.542;13.232;2022-09-09T11:26:41;18.40;1.00
62072;DHT22;48031;48.542;13.232;2022-09-09T11:40:30;18.20;1.00
62072;DHT22;48031;48.542;13.232;2022-09-09T11:43:12;18.00;1.00
62072;DHT22;48031;48.542;13.232;2022-09-09T11:45:42;17.90;1.00
62072;DHT22;48031;48.542;13.232;2022-09-09T11:48:43;17.90;1.00
62072;DHT22;48031;48.542;13.232;2022-09-09T11:54:04;17.70;1.00
62072;DHT22;48031;48.542;13.232;2022-09-09T11:56:49;17.60;1.00
62072;DHT22;48031;48.542;13.232;2022-09-09T11:59:27;17.50;1.00
62072;DHT22;48031;48.542;13.232;2022-09-09T12:05:43;17.50;1.00
62072;DHT22;48031;48.542;13.232;2022-09-09T12:08:16;17.50;1.70
62072;DHT22;48031;48.542;13.232;2022-09-09T12:10:58;18.40;5.50
62072;DHT22;48031;48.542;13.232;2022-09-09T12:17:44;19.20;99.90
62072;DHT22;48031;48.542;13.232;2022-09-09T12:28:25;16.90;6.90
62072;DHT22;48031;48.542;13.232;2022-09-09T12:31:12;16.70;8.20
62072;DHT22;48031;48.542;13.232;2022-09-09T12:33:45;16.70;12.80
62072;DHT22;48031;48.542;13.232;2022-09-09T12:36:23;16.50;15.30
62072;DHT22;48031;48.542;13.232;2022-09-09T12:38:51;16.50;21.40
62072;DHT22;48031;48.542;13.232;2022-09-09T12:41:24;16.50;26.30
62072;DHT22;48031;48.542;13.232;2022-09-09T12:44:02;16.50;31.60
62072;DHT22;48031;48.542;13.232;2022-09-09T12:46:44;15.40;41.00
62072;DHT22;48031;48.542;13.232;2022-09-09T12:49:34;16.70;38.60
62072;DHT22;48031;48.542;13.232;2022-09-09T12:52:05;16.70;39.20
62072;DHT22;48031;48.542;13.232;2022-09-09T12:54:36;16.90;37.20
62072;DHT22;48031;48.542;13.232;2022-09-09T12:57:04;16.90;35.80
62072;DHT22;48031;48.542;13.232;2022-09-09T12:59:40;17.00;42.40
62072;DHT22;48031;48.542;13.232;2022-09-09T13:02:19;17.00;49.00
62072;DHT22;48031;48.542;13.232;2022-09-09T13:04:46;17.00;52.00
62072;DHT22;48031;48.542;13.232;2022-09-09T13:07:14;17.00;53.00
62072;DHT22;48031;48.542;13.232;2022-09-09T13:09:45;16.90;57.10
62072;DHT22;48031;48.542;13.232;2022-09-09T13:12:23;17.00;57.10
62072;DHT22;48031;48.542;13.232;2022-09-09T13:17:25;17.00;99.90
62072;DHT22;48031;48.542;13.232;2022-09-09T13:19:56;17.00;99.90
62072;DHT22;48031;48.542;13.232;2022-09-09T13:22:29;17.20;99.90
62072;DHT22;48031;48.542;13.232;2022-09-09T13:27:39;17.20;99.90
62072;DHT22;48031;48.542;13.232;2022-09-09T13:30:54;17.20;99.90
62072;DHT22;48031;48.542;13.232;2022-09-09T13:33:36;17.20;99.90
62072;DHT22;48031;48.542;13.232;2022-09-09T13:36:08;17.20;99.90
62072;DHT22;48031;48.542;13.232;2022-09-09T13:38:39;17.20;99.90
62072;DHT22;48031;48.542;13.232;2022-09-09T13:41:09;17.30;99.90
62072;DHT22;48031;48.542;13.232;2022-09-09T13:43:45;17.30;99.90
62072;DHT22;48031;48.542;13.232;2022-09-09T13:49:01;17.60;99.90
62072;DHT22;48031;48.542;13.232;2022-09-09T13:51:33;17.70;99.90
62072;DHT22;48031;48.542;13.232;2022-09-09T13:54:01;18.00;99.90
62072;DHT22;48031;48.542;13.232;2022-09-09T13:56:28;17.90;99.90
62072;DHT22;48031;48.542;13.232;2022-09-09T13:58:55;18.00;99.90
62072;DHT22;48031;48.542;13.232;2022-09-09T14:01:24;18.00;99.90
62072;DHT22;48031;48.542;13.232;2022-09-09T14:03:55;18.20;99.90
62072;DHT22;48031;48.542;13.232;2022-09-09T14:06:22;18.40;99.90
62072;DHT22;48031;48.542;13.232;2022-09-09T14:08:51;18.90;99.90
62072;DHT22;48031;48.542;13.232;2022-09-09T14:11:18;19.00;99.90
62072;DHT22;48031;48.542;13.232;2022-09-09T14:13:46;19.00;99.90
62072;DHT22;48031;48.542;13.232;2022-09-09T14:16:13;19.00;99.90
62072;DHT22;48031;48.542;13.232;2022-09-09T14:18:40;19.40;99.90
62072;DHT22;48031;48.542;13.232;2022-09-09T14:21:07;20.00;99.90
62072;DHT22;48031;48.542;13.232;2022-09-09T14:23:35;20.50;99.90
62072;DHT22;48031;48.542;13.232;2022-09-09T14:28:31;21.00;38.40
62072;DHT22;48031;48.542;13.232;2022-09-09T14:31:18;20.90;34.20
62072;DHT22;48031;48.542;13.232;2022-09-09T14:33:45;21.80;29.60
62072;DHT22;48031;48.542;13.232;2022-09-09T14:36:12;23.50;16.60
62072;DHT22;48031;48.542;13.232;2022-09-09T14:38:39;26.00;1.00
62072;DHT22;48031;48.542;13.232;2022-09-09T14:41:11;26.60;1.00
62072;DHT22;48031;48.542;13.232;2022-09-09T14:43:39;29.30;1.00
62072;DHT22;48031;48.542;13.232;2022-09-09T14:46:11;32.80;1.00
62072;DHT22;48031;48.542;13.232;2022-09-09T14:48:39;28.10;1.00
62072;DHT22;48031;48.542;13.232;2022-09-09T14:51:11;25.40;1.00
62072;DHT22;48031;48.542;13.232;2022-09-09T14:53:40;24.40;1.00
62072;DHT22;48031;48.542;13.232;2022-09-09T14:56:28;24.70;1.00
62072;DHT22;48031;48.542;13.232;2022-09-09T14:58:57;26.20;1.00
62072;DHT22;48031;48.542;13.232;2022-09-09T15:01:25;26.90;1.00
62072;DHT22;48031;48.542;13.232;2022-09-09T15:04:01;25.40;1.00
62072;DHT22;48031;48.542;13.232;2022-09-09T15:06:31;24.20;1.00
62072;DHT22;48031;48.542;13.232;2022-09-09T15:09:00;23.60;1.00
62072;DHT22;48031;48.542;13.232;2022-09-09T15:11:29;22.80;1.00
62072;DHT22;48031;48.542;13.232;2022-09-09T15:13:57;22.40;1.00
62072;DHT22;48031;48.542;13.232;2022-09-09T15:16:27;22.00;3.40
62072;DHT22;48031;48.542;13.232;2022-09-09T15:18:56;21.90;4.50
62072;DHT22;48031;48.542;13.232;2022-09-09T15:21:27;21.50;1.70
62072;DHT22;48031;48.542;13.232;2022-09-09T15:26:23;21.70;6.30
62072;DHT22;48031;48.542;13.232;2022-09-09T15:31:26;22.40;4.30
62072;DHT22;48031;48.542;13.232;2022-09-09T15:33:57;21.90;1.00
62072;DHT22;48031;48.542;13.232;2022-09-09T15:36:29;22.00;1.00
62072;DHT22;48031;48.542;13.232;2022-09-09T15:39:02;23.60;1.00
62072;DHT22;48031;48.542;13.232;2022-09-09T15:41:29;28.60;1.00
62072;DHT22;48031;48.542;13.232;2022-09-09T15:43:59;32.60;1.00
62072;DHT22;48031;48.542;13.232;2022-09-09T15:46:35;33.10;1.00
62072;DHT22;48031;48.542;13.232;2022-09-09T15:51:42;27.20;1.00
62072;DHT22;48031;48.542;13.232;2022-09-09T15:54:12;25.70;1.00
62072;DHT22;48031;48.542;13.232;2022-09-09T15:56:41;24.10;1.00
62072;DHT22;48031;48.542;13.232;2022-09-09T15:59:09;23.40;1.00
62072;DHT22;48031;48.542;13.232;2022-09-09T16:01:36;23.10;1.00
62072;DHT22;48031;48.542;13.232;2022-09-09T16:04:03;22.50;1.00
62072;DHT22;48031;48.542;13.232;2022-09-09T16:06:30;22.10;1.00
62072;DHT22;48031;48.542;13.232;2022-09-09T16:08:58;21.90;1.00
62072;DHT22;48031;48.542;13.232;2022-09-09T16:11:30;24.60;1.00
62072;DHT22;48031;48.542;13.232;2022-09-09T16:13:58;23.20;1.00
62072;DHT22;48031;48.542;13.232;2022-09-09T16:16:28;23.00;1.00
62072;DHT22;48031;48.542;13.232;2022-09-09T16:19:00;21.70;1.00
62072;DHT22;48031;48.542;13.232;2022-09-09T16:21:30;20.90;1.00
62072;DHT22;48031;48.542;13.232;2022-09-09T16:24:00;20.50;1.00
62072;DHT22;48031;48.542;13.232;2022-09-09T16:26:30;20.20;1.00
62072;DHT22;48031;48.542;13.232;2022-09-09T16:28:59;20.10;1.00
62072;DHT22;48031;48.542;13.232;2022-09-09T16:31:27;20.10;1.00
62072;DHT22;48031;48.542;13.232;2022-09-09T16:33:55;20.00;1.00
62072;DHT22;48031;48.542;13.232;2022-09-09T16:36:24;20.00;1.00
62072;DHT22;48031;48.542;13.232;2022-09-09T16:38:56;19.90;1.00
62072;DHT22;48031;48.542;13.232;2022-09-09T16:41:25;22.20;1.00
62072;DHT22;48031;48.542;13.232;2022-09-09T16:43:54;21.90;1.00
62072;DHT22;48031;48.542;13.232;2022-09-09T16:46:22;24.00;1.00
62072;DHT22;48031;48.542;13.232;2022-09-09T16:48:51;25.50;1.00
62072;DHT22;48031;48.542;13.232;2022-09-09T16:51:30;24.70;1.00
62072;DHT22;48031;48.542;13.232;2022-09-09T16:53:59;22.30;1.00
62072;DHT22;48031;48.542;13.232;2022-09-09T16:56:28;20.80;1.00
62072;DHT22;48031;48.542;13.232;2022-09-09T16:58:57;20.20;1.00
62072;DHT22;48031;48.542;13.232;2022-09-09T17:01:27;19.80;1.00
62072;DHT22;48031;48.542;13.232;2022-09-09T17:03:59;19.50;1.00
62072;DHT22;48031;48.542;13.232;2022-09-09T17:06:29;19.20;1.00
62072;DHT22;48031;48.542;13.232;2022-09-09T17:08:58;18.90;1.00
62072;DHT22;48031;48.542;13.232;2022-09-09T17:11:25;18.70;1.40
62072;DHT22;48031;48.542;13.232;2022-09-09T17:13:52;18.40;9.40
62072;DHT22;48031;48.542;13.232;2022-09-09T17:16:22;18.10;11.90
62072;DHT22;48031;48.542;13.232;2022-09-09T17:18:52;17.80;19.90
62072;DHT22;48031;48.542;13.232;2022-09-09T17:21:21;17.70;26.70
62072;DHT22;48031;48.542;13.232;2022-09-09T17:23:48;17.40;25.30
62072;DHT22;48031;48.542;13.232;2022-09-09T17:26:19;17.30;34.70
62072;DHT22;48031;48.542;13.232;2022-09-09T17:28:46;17.20;41.10
62072;DHT22;48031;48.542;13.232;2022-09-09T17:31:15;17.10;46.20
62072;DHT22;48031;48.542;13.232;2022-09-09T17:33:45;17.00;44.60
62072;DHT22;48031;48.542;13.232;2022-09-09T17:36:18;17.00;45.30
62072;DHT22;48031;48.542;13.232;2022-09-09T17:38:45;17.00;42.80
62072;DHT22;48031;48.542;13.232;2022-09-09T17:41:17;17.00;43.20
62072;DHT22;48031;48.542;13.232;2022-09-09T17:43:46;17.00;50.80
62072;DHT22;48031;48.542;13.232;2022-09-09T17:46:16;17.00;46.00
62072;DHT22;48031;48.542;13.232;2022-09-09T17:48:44;17.00;37.90
62072;DHT22;48031;48.542;13.232;2022-09-09T17:51:14;17.00;38.10
62072;DHT22;48031;48.542;13.232;2022-09-09T17:53:46;17.00;37.60
62072;DHT22;48031;48.542;13.232;2022-09-09T17:56:17;17.00;37.50
62072;DHT22;48031;48.542;13.232;2022-09-09T17:58:44;16.90;38.60
62072;DHT22;48031;48.542;13.232;2022-09-09T18:01:19;17.00;38.20
62072;DHT22;48031;48.542;13.232;2022-09-09T18:03:47;16.90;42.00
62072;DHT22;48031;48.542;13.232;2022-09-09T18:06:17;16.80;41.40
62072;DHT22;48031;48.542;13.232;2022-09-09T18:08:50;16.90;40.50
62072;DHT22;48031;48.542;13.232;2022-09-09T18:11:21;16.80;41.60
62072;DHT22;48031;48.542;13.232;2022-09-09T18:13:53;16.80;43.10
62072;DHT22;48031;48.542;13.232;2022-09-09T18:16:21;16.80;42.90
62072;DHT22;48031;48.542;13.232;2022-09-09T18:18:49;16.80;44.10
62072;DHT22;48031;48.542;13.232;2022-09-09T18:21:18;16.70;46.80
62072;DHT22;48031;48.542;13.232;2022-09-09T18:23:46;16.70;46.20
62072;DHT22;48031;48.542;13.232;2022-09-09T18:26:22;16.70;46.50
62072;DHT22;48031;48.542;13.232;2022-09-09T18:28:57;16.70;45.60
62072;DHT22;48031;48.542;13.232;2022-09-09T18:31:26;17.60;48.80
62072;DHT22;48031;48.542;13.232;2022-09-09T18:33:56;16.80;44.40
62072;DHT22;48031;48.542;13.232;2022-09-09T18:36:26;16.80;47.10
62072;DHT22;48031;48.542;13.232;2022-09-09T18:38:55;16.80;47.80
62072;DHT22;48031;48.542;13.232;2022-09-09T18:41:25;16.80;49.40
62072;DHT22;48031;48.542;13.232;2022-09-09T18:43:57;16.80;48.10
62072;DHT22;48031;48.542;13.232;2022-09-09T18:46:27;16.80;46.40
62072;DHT22;48031;48.542;13.232;2022-09-09T18:48:55;16.80;46.90
62072;DHT22;48031;48.542;13.232;2022-09-09T18:51:24;16.80;47.90
62072;DHT22;48031;48.542;13.232;2022-09-09T18:53:54;16.70;52.40